Long Hua — VRFR5 — position and weather

sailwx.info

Track history (hours):
 
Tides and Currents Weather Stations Pressure Air Temp Water Temp Dewpoint Dewpoint Depression Visibility Wind Speed Wind Dir Waves Ship Positions

Long Hua

Last reported at 2015-May-29 18:14 UTC. Time now 2015-Jul-04 22:29 UTC.
Position N 01°16' E 104°08'.
Warning: this ship's position is 36 days out of date.

Length 180 m; draft 6.6 m.

MMSI: 477622800.

Date/timePositionNaut miles runAvg speedWind from/ knotsBaromVisibWave heightAir tempDewpointWater temp
2015-May-29 18:14N 01°16' E 104°08'7 9.7
2015-May-29 17:30N 01°16' E 104°01'3 3.6
2015-May-29 16:33N 01°17' E 103°58'0 0.1
2015-May-29 15:32N 01°17' E 103°58'0 0.1
2015-May-29 14:17N 01°17' E 103°58'0 0.1
2015-May-29 13:17N 01°17' E 103°57'0 0.0
2015-May-29 12:05N 01°17' E 103°57'0 0.0
2015-May-29 11:29N 01°17' E 103°57'0 0.0
2015-May-29 10:23N 01°17' E 103°57'0 0.1
2015-May-29 09:11N 01°17' E 103°58'0 0.0
2015-May-29 08:23N 01°17' E 103°58'0 0.1
2015-May-29 07:32N 01°17' E 103°58'0 0.0
2015-May-29 06:20N 01°17' E 103°58'0 0.0
2015-May-29 03:05N 01°17' E 103°58'0 0.0
2015-May-29 02:20N 01°17' E 103°58'0 0.1
2015-May-29 01:29N 01°17' E 103°58'0 0.0
2015-May-29 00:29N 01°17' E 103°58'0 0.1
2015-May-28 23:26N 01°17' E 103°58'0 0.0
2015-May-28 22:32N 01°17' E 103°58'0 0.1
2015-May-28 21:23N 01°17' E 103°58'0 0.0
2015-May-28 20:08N 01°17' E 103°58'0 0.0
2015-May-28 19:32N 01°17' E 103°58'0 0.0
2015-May-28 18:11N 01°17' E 103°58'0 0.0
2015-May-28 17:08N 01°17' E 103°58'0 0.1
2015-May-28 16:29N 01°17' E 103°58'0 0.0
2015-May-28 15:26N 01°17' E 103°58'0 0.0
2015-May-28 14:26N 01°17' E 103°58'  
Track history (hours):
 
Tides and Currents Weather Stations Pressure Air Temp Water Temp Dewpoint Dewpoint Depression Visibility Wind Speed Wind Dir Waves Ship Positions

Long Hua

Last reported at 2015-May-29 18:14 UTC. Time now 2015-Jul-04 22:29 UTC.
Position N 01°16' E 104°08'.
Warning: this ship's position is 36 days out of date.

Length 180 m; draft 6.6 m.

MMSI: 477622800.

Date/timePositionNaut miles runAvg speedWind from/ knotsBaromVisibWave heightAir tempDewpointWater temp
2015-May-29 18:14N 01°16' E 104°08'7 9.7
2015-May-29 17:30N 01°16' E 104°01'3 3.6
2015-May-29 16:33N 01°17' E 103°58'0 0.1
2015-May-29 15:32N 01°17' E 103°58'0 0.1
2015-May-29 14:17N 01°17' E 103°58'0 0.1
2015-May-29 13:17N 01°17' E 103°57'0 0.0
2015-May-29 12:05N 01°17' E 103°57'0 0.0
2015-May-29 11:29N 01°17' E 103°57'0 0.0
2015-May-29 10:23N 01°17' E 103°57'0 0.1
2015-May-29 09:11N 01°17' E 103°58'0 0.0
2015-May-29 08:23N 01°17' E 103°58'0 0.1
2015-May-29 07:32N 01°17' E 103°58'0 0.0
2015-May-29 06:20N 01°17' E 103°58'0 0.0
2015-May-29 03:05N 01°17' E 103°58'0 0.0
2015-May-29 02:20N 01°17' E 103°58'0 0.1
2015-May-29 01:29N 01°17' E 103°58'0 0.0
2015-May-29 00:29N 01°17' E 103°58'0 0.1
2015-May-28 23:26N 01°17' E 103°58'0 0.0
2015-May-28 22:32N 01°17' E 103°58'0 0.1
2015-May-28 21:23N 01°17' E 103°58'0 0.0
2015-May-28 20:08N 01°17' E 103°58'0 0.0
2015-May-28 19:32N 01°17' E 103°58'0 0.0
2015-May-28 18:11N 01°17' E 103°58'0 0.0
2015-May-28 17:08N 01°17' E 103°58'0 0.1
2015-May-28 16:29N 01°17' E 103°58'0 0.0
2015-May-28 15:26N 01°17' E 103°58'0 0.0
2015-May-28 14:26N 01°17' E 103°58'  

Dump ship's entire track history